Decoded Metar for PASA (SAVOONGA in AK, USA) (IATA:SVA) | Meteo·Mobile Aviation Weather
aviador You're here:

PASA Decoded Metar

SAVOONGA in AK, USA
Report Time2019-02-16 18:10:00
UTC Time2019-02-16 18:19:47
Flight Rules lifr LIFR
Wind180° at 34 Gusting to 41 kt
W.Decomp.*RWY 23: 17.0 kt HW 29.4 kt LCW
W.Rank180° ranks 26
Current wind is above 180° avg. (12.8)
Visibility1207 m
Phenomena:Light Snow
Mist
Clouds:N/A
Expected CloudBase > 400 ft AGL from Temp-Dew spread
Ceiling200 ft
Temp-2°C (ISA -17)
Dew Point-3°C (93% RH)
AAT-16.6°C
QNH1001 hPa
Density Alt-1,542 ft
Elevation52 ft
Report Wrong Elevation
Raw Report
PASA 161810Z AUTO 18034G41KT 3/4SM -SN BR VV002 M02/M03 A2956 RMK
AO2 PK WND 19041/1808 P0000 FZRANO $=

Extra information for PASA:More info

Metar Taf Metar & Taf Last 4 Metars F.Rules Stats Wind Profile Meteogram Temp Stats Airport Information Weather charts Add Link Nearby VenuesMetar ALERT Operation Metar Decoded Social comments

AIRNAV info for PASA